sensor_id;sensor_type;location;lat;lon;timestamp;pressure;altitude;pressure_sealevel;temperature;humidity
64078;BME280;51039;49.696;10.808;2023-04-15T00:00:50;97380.16;;;4.45;100.00
64078;BME280;51039;49.696;10.808;2023-04-15T00:03:16;97384.53;;;4.38;100.00
64078;BME280;51039;49.696;10.808;2023-04-15T00:05:41;97378.47;;;4.38;100.00
64078;BME280;51039;49.696;10.808;2023-04-15T00:08:07;97374.59;;;4.33;100.00
64078;BME280;51039;49.696;10.808;2023-04-15T00:10:32;97367.72;;;4.32;100.00
64078;BME280;51039;49.696;10.808;2023-04-15T00:12:57;97370.34;;;4.32;100.00
64078;BME280;51039;49.696;10.808;2023-04-15T00:15:23;97373.16;;;4.31;100.00
64078;BME280;51039;49.696;10.808;2023-04-15T00:17:49;97374.78;;;4.32;100.00
64078;BME280;51039;49.696;10.808;2023-04-15T00:20:15;97361.25;;;4.28;100.00
64078;BME280;51039;49.696;10.808;2023-04-15T00:22:41;97357.63;;;4.29;100.00
64078;BME280;51039;49.696;10.808;2023-04-15T00:25:07;97361.09;;;4.37;100.00
64078;BME280;51039;49.696;10.808;2023-04-15T00:27:33;97355.69;;;4.38;100.00
64078;BME280;51039;49.696;10.808;2023-04-15T00:29:58;97357.13;;;4.41;100.00
64078;BME280;51039;49.696;10.808;2023-04-15T00:32:24;97342.56;;;4.38;100.00
64078;BME280;51039;49.696;10.808;2023-04-15T00:34:49;97350.06;;;4.41;100.00
64078;BME280;51039;49.696;10.808;2023-04-15T00:37:15;97348.38;;;4.33;100.00
64078;BME280;51039;49.696;10.808;2023-04-15T00:39:40;97354.44;;;4.34;100.00
64078;BME280;51039;49.696;10.808;2023-04-15T00:42:06;97353.19;;;4.30;100.00
64078;BME280;51039;49.696;10.808;2023-04-15T00:44:32;97356.81;;;4.29;100.00
64078;BME280;51039;49.696;10.808;2023-04-15T00:46:58;97355.56;;;4.25;100.00
64078;BME280;51039;49.696;10.808;2023-04-15T00:49:24;97344.63;;;4.21;100.00
64078;BME280;51039;49.696;10.808;2023-04-15T00:51:51;97345.66;;;4.20;100.00
64078;BME280;51039;49.696;10.808;2023-04-15T00:54:16;97348.53;;;4.25;100.00
64078;BME280;51039;49.696;10.808;2023-04-15T00:56:42;97352.38;;;4.29;100.00
64078;BME280;51039;49.696;10.808;2023-04-15T00:59:07;97353.19;;;4.30;100.00
64078;BME280;51039;49.696;10.808;2023-04-15T01:01:36;97349.19;;;4.34;100.00
64078;BME280;51039;49.696;10.808;2023-04-15T01:04:02;97340.13;;;4.37;100.00
64078;BME280;51039;49.696;10.808;2023-04-15T01:06:29;97343.81;;;4.42;100.00
64078;BME280;51039;49.696;10.808;2023-04-15T01:08:54;97337.00;;;4.48;100.00
64078;BME280;51039;49.696;10.808;2023-04-15T01:11:20;97335.00;;;4.50;100.00
64078;BME280;51039;49.696;10.808;2023-04-15T01:13:47;97333.63;;;4.54;100.00
64078;BME280;51039;49.696;10.808;2023-04-15T01:16:14;97342.13;;;4.56;100.00
64078;BME280;51039;49.696;10.808;2023-04-15T01:18:40;97340.75;;;4.60;100.00
64078;BME280;51039;49.696;10.808;2023-04-15T01:21:06;97328.25;;;4.62;100.00
64078;BME280;51039;49.696;10.808;2023-04-15T01:23:32;97330.13;;;4.68;100.00
64078;BME280;51039;49.696;10.808;2023-04-15T01:26:04;97338.59;;;4.70;100.00
64078;BME280;51039;49.696;10.808;2023-04-15T01:28:31;97335.63;;;4.74;100.00
64078;BME280;51039;49.696;10.808;2023-04-15T01:31:10;97334.59;;;4.75;100.00
64078;BME280;51039;49.696;10.808;2023-04-15T01:33:41;97331.34;;;4.72;100.00
64078;BME280;51039;49.696;10.808;2023-04-15T01:36:07;97335.41;;;4.75;100.00
64078;BME280;51039;49.696;10.808;2023-04-15T01:38:34;97329.97;;;4.77;100.00
64078;BME280;51039;49.696;10.808;2023-04-15T01:41:00;97326.97;;;4.80;100.00
64078;BME280;51039;49.696;10.808;2023-04-15T01:43:25;97314.84;;;4.79;100.00
64078;BME280;51039;49.696;10.808;2023-04-15T01:45:52;97323.72;;;4.78;100.00
64078;BME280;51039;49.696;10.808;2023-04-15T01:48:17;97324.72;;;4.77;100.00
64078;BME280;51039;49.696;10.808;2023-04-15T01:50:43;97321.13;;;4.78;100.00
64078;BME280;51039;49.696;10.808;2023-04-15T01:53:09;97313.25;;;4.78;100.00
64078;BME280;51039;49.696;10.808;2023-04-15T01:55:34;97316.47;;;4.80;100.00
64078;BME280;51039;49.696;10.808;2023-04-15T01:58:00;97313.06;;;4.79;100.00
64078;BME280;51039;49.696;10.808;2023-04-15T02:00:26;97311.00;;;4.75;100.00
64078;BME280;51039;49.696;10.808;2023-04-15T02:02:52;97309.38;;;4.74;100.00
64078;BME280;51039;49.696;10.808;2023-04-15T02:05:17;97319.47;;;4.77;100.00
64078;BME280;51039;49.696;10.808;2023-04-15T02:07:43;97315.69;;;4.79;100.00
64078;BME280;51039;49.696;10.808;2023-04-15T02:10:09;97302.34;;;4.81;100.00
64078;BME280;51039;49.696;10.808;2023-04-15T02:12:35;97308.44;;;4.81;100.00
64078;BME280;51039;49.696;10.808;2023-04-15T02:15:01;97305.59;;;4.83;100.00
64078;BME280;51039;49.696;10.808;2023-04-15T02:17:26;97298.13;;;4.80;100.00
64078;BME280;51039;49.696;10.808;2023-04-15T02:19:51;97303.22;;;4.88;100.00
64078;BME280;51039;49.696;10.808;2023-04-15T02:22:17;97298.56;;;4.90;100.00
64078;BME280;51039;49.696;10.808;2023-04-15T02:24:42;97297.78;;;4.89;100.00
64078;BME280;51039;49.696;10.808;2023-04-15T02:27:09;97294.97;;;4.91;100.00
64078;BME280;51039;49.696;10.808;2023-04-15T02:29:35;97288.88;;;4.90;100.00
64078;BME280;51039;49.696;10.808;2023-04-15T02:32:00;97289.09;;;4.89;100.00
64078;BME280;51039;49.696;10.808;2023-04-15T02:34:26;97289.72;;;4.91;100.00
64078;BME280;51039;49.696;10.808;2023-04-15T02:36:51;97297.19;;;4.94;100.00
64078;BME280;51039;49.696;10.808;2023-04-15T02:39:21;97300.81;;;4.93;100.00
64078;BME280;51039;49.696;10.808;2023-04-15T02:41:46;97304.06;;;4.95;100.00
64078;BME280;51039;49.696;10.808;2023-04-15T02:44:16;97297.00;;;4.96;100.00
64078;BME280;51039;49.696;10.808;2023-04-15T02:46:44;97301.44;;;4.95;100.00
64078;BME280;51039;49.696;10.808;2023-04-15T02:49:12;97299.63;;;4.96;100.00
64078;BME280;51039;49.696;10.808;2023-04-15T02:51:38;97302.25;;;4.96;100.00
64078;BME280;51039;49.696;10.808;2023-04-15T02:54:03;97303.66;;;4.98;100.00
64078;BME280;51039;49.696;10.808;2023-04-15T02:56:29;97309.94;;;4.97;100.00
64078;BME280;51039;49.696;10.808;2023-04-15T02:58:54;97304.28;;;5.00;100.00
64078;BME280;51039;49.696;10.808;2023-04-15T03:01:20;97307.72;;;5.01;100.00
64078;BME280;51039;49.696;10.808;2023-04-15T03:03:46;97304.72;;;5.04;100.00
64078;BME280;51039;49.696;10.808;2023-04-15T03:06:11;97304.94;;;5.02;100.00
64078;BME280;51039;49.696;10.808;2023-04-15T03:08:36;97312.59;;;5.04;100.00
64078;BME280;51039;49.696;10.808;2023-04-15T03:11:01;97304.53;;;5.05;100.00
64078;BME280;51039;49.696;10.808;2023-04-15T03:13:27;97304.94;;;5.09;100.00
64078;BME280;51039;49.696;10.808;2023-04-15T03:15:53;97305.13;;;5.07;100.00
64078;BME280;51039;49.696;10.808;2023-04-15T03:18:18;97302.31;;;5.09;100.00
64078;BME280;51039;49.696;10.808;2023-04-15T03:20:43;97305.75;;;5.09;100.00
64078;BME280;51039;49.696;10.808;2023-04-15T03:23:08;97308.19;;;5.11;100.00
64078;BME280;51039;49.696;10.808;2023-04-15T03:25:34;97303.75;;;5.11;100.00
64078;BME280;51039;49.696;10.808;2023-04-15T03:28:02;97300.75;;;5.15;100.00
64078;BME280;51039;49.696;10.808;2023-04-15T03:30:27;97305.38;;;5.13;100.00
64078;BME280;51039;49.696;10.808;2023-04-15T03:32:52;97299.31;;;5.12;100.00
64078;BME280;51039;49.696;10.808;2023-04-15T03:35:18;97295.69;;;5.13;100.00
64078;BME280;51039;49.696;10.808;2023-04-15T03:37:43;97299.53;;;5.17;100.00
64078;BME280;51039;49.696;10.808;2023-04-15T03:40:09;97291.84;;;5.16;100.00
64078;BME280;51039;49.696;10.808;2023-04-15T03:42:34;97292.88;;;5.15;100.00
64078;BME280;51039;49.696;10.808;2023-04-15T03:45:00;97295.44;;;5.08;100.00
64078;BME280;51039;49.696;10.808;2023-04-15T03:47:25;97305.72;;;5.03;100.00
64078;BME280;51039;49.696;10.808;2023-04-15T03:49:50;97300.47;;;5.03;100.00
64078;BME280;51039;49.696;10.808;2023-04-15T03:52:16;97302.50;;;5.01;100.00
64078;BME280;51039;49.696;10.808;2023-04-15T03:54:41;97298.41;;;4.98;100.00
64078;BME280;51039;49.696;10.808;2023-04-15T03:57:06;97304.28;;;5.00;100.00
64078;BME280;51039;49.696;10.808;2023-04-15T03:59:32;97303.03;;;4.96;100.00
64078;BME280;51039;49.696;10.808;2023-04-15T04:01:57;97299.03;;;5.00;100.00
64078;BME280;51039;49.696;10.808;2023-04-15T04:04:22;97302.66;;;4.99;100.00
64078;BME280;51039;49.696;10.808;2023-04-15T04:06:47;97298.63;;;4.97;100.00
64078;BME280;51039;49.696;10.808;2023-04-15T04:09:13;97311.53;;;4.98;100.00
64078;BME280;51039;49.696;10.808;2023-04-15T04:11:38;97304.28;;;5.00;100.00
64078;BME280;51039;49.696;10.808;2023-04-15T04:14:03;97307.91;;;4.99;100.00
64078;BME280;51039;49.696;10.808;2023-04-15T04:16:29;97301.88;;;4.99;100.00
64078;BME280;51039;49.696;10.808;2023-04-15T04:18:54;97314.59;;;5.02;100.00
64078;BME280;51039;49.696;10.808;2023-04-15T04:21:20;97311.78;;;5.03;100.00
64078;BME280;51039;49.696;10.808;2023-04-15T04:23:45;97310.19;;;5.02;100.00
64078;BME280;51039;49.696;10.808;2023-04-15T04:26:11;97312.16;;;5.00;100.00
64078;BME280;51039;49.696;10.808;2023-04-15T04:28:36;97314.16;;;4.98;100.00
64078;BME280;51039;49.696;10.808;2023-04-15T04:31:03;97308.09;;;4.98;100.00
64078;BME280;51039;49.696;10.808;2023-04-15T04:33:29;97309.34;;;5.02;100.00
64078;BME280;51039;49.696;10.808;2023-04-15T04:35:54;97312.03;;;5.08;100.00
64078;BME280;51039;49.696;10.808;2023-04-15T04:38:19;97313.63;;;5.09;100.00
64078;BME280;51039;49.696;10.808;2023-04-15T04:40:45;97308.56;;;5.08;100.00
64078;BME280;51039;49.696;10.808;2023-04-15T04:43:10;97309.41;;;5.15;100.00
64078;BME280;51039;49.696;10.808;2023-04-15T04:45:36;97317.72;;;5.19;100.00
64078;BME280;51039;49.696;10.808;2023-04-15T04:48:02;97317.34;;;5.22;100.00
64078;BME280;51039;49.696;10.808;2023-04-15T04:50:30;97311.13;;;5.29;100.00
64078;BME280;51039;49.696;10.808;2023-04-15T04:52:56;97320.41;;;5.32;100.00
64078;BME280;51039;49.696;10.808;2023-04-15T04:55:21;97323.84;;;5.32;100.00
64078;BME280;51039;49.696;10.808;2023-04-15T04:57:47;97323.28;;;5.37;100.00
64078;BME280;51039;49.696;10.808;2023-04-15T05:00:12;97327.31;;;5.40;100.00
64078;BME280;51039;49.696;10.808;2023-04-15T05:02:38;97327.75;;;5.43;100.00
64078;BME280;51039;49.696;10.808;2023-04-15T05:05:03;97326.56;;;5.53;100.00
64078;BME280;51039;49.696;10.808;2023-04-15T05:07:29;97326.16;;;5.56;100.00
64078;BME280;51039;49.696;10.808;2023-04-15T05:09:55;97318.09;;;5.57;100.00
64078;BME280;51039;49.696;10.808;2023-04-15T05:12:20;97329.25;;;5.66;100.00
64078;BME280;51039;49.696;10.808;2023-04-15T05:14:46;97314.09;;;5.68;99.67
64078;BME280;51039;49.696;10.808;2023-04-15T05:17:11;97312.69;;;5.72;99.62
64078;BME280;51039;49.696;10.808;2023-04-15T05:19:36;97306.03;;;5.76;100.00
64078;BME280;51039;49.696;10.808;2023-04-15T05:22:02;97312.28;;;5.75;99.58
64078;BME280;51039;49.696;10.808;2023-04-15T05:24:27;97315.91;;;5.67;100.00
64078;BME280;51039;49.696;10.808;2023-04-15T05:26:52;97313.13;;;5.76;100.00
64078;BME280;51039;49.696;10.808;2023-04-15T05:29:18;97315.38;;;5.85;100.00
64078;BME280;51039;49.696;10.808;2023-04-15T05:31:43;97318.44;;;5.96;99.84
64078;BME280;51039;49.696;10.808;2023-04-15T05:34:08;97319.66;;;6.00;99.49
64078;BME280;51039;49.696;10.808;2023-04-15T05:36:35;97319.66;;;6.00;99.37
64078;BME280;51039;49.696;10.808;2023-04-15T05:39:01;97322.09;;;6.08;98.90
64078;BME280;51039;49.696;10.808;2023-04-15T05:41:26;97318.88;;;6.19;98.81
64078;BME280;51039;49.696;10.808;2023-04-15T05:43:51;97318.31;;;6.24;98.72
64078;BME280;51039;49.696;10.808;2023-04-15T05:46:16;97322.75;;;6.37;98.83
64078;BME280;51039;49.696;10.808;2023-04-15T05:48:43;97319.94;;;6.45;98.26
64078;BME280;51039;49.696;10.808;2023-04-15T05:51:08;97322.38;;;6.53;97.86
64078;BME280;51039;49.696;10.808;2023-04-15T05:53:33;97322.97;;;6.55;98.18
64078;BME280;51039;49.696;10.808;2023-04-15T05:55:59;97329.22;;;6.67;97.59
64078;BME280;51039;49.696;10.808;2023-04-15T05:58:24;97331.66;;;6.82;97.32
64078;BME280;51039;49.696;10.808;2023-04-15T06:00:50;97336.94;;;6.89;96.15
64078;BME280;51039;49.696;10.808;2023-04-15T06:03:15;97331.66;;;6.96;95.49
64078;BME280;51039;49.696;10.808;2023-04-15T06:05:41;97329.78;;;7.10;95.25
64078;BME280;51039;49.696;10.808;2023-04-15T06:08:06;97330.41;;;6.98;95.77
64078;BME280;51039;49.696;10.808;2023-04-15T06:10:32;97330.25;;;6.86;95.96
64078;BME280;51039;49.696;10.808;2023-04-15T06:13:00;97328.81;;;6.91;96.56
64078;BME280;51039;49.696;10.808;2023-04-15T06:15:28;97338.94;;;6.87;96.22
64078;BME280;51039;49.696;10.808;2023-04-15T06:17:54;97331.66;;;6.89;95.66
64078;BME280;51039;49.696;10.808;2023-04-15T06:20:20;97338.53;;;6.90;96.13
64078;BME280;51039;49.696;10.808;2023-04-15T06:22:45;97329.84;;;6.90;95.81
64078;BME280;51039;49.696;10.808;2023-04-15T06:25:10;97333.28;;;6.90;95.67
64078;BME280;51039;49.696;10.808;2023-04-15T06:27:36;97333.66;;;7.07;94.55
64078;BME280;51039;49.696;10.808;2023-04-15T06:30:01;97331.44;;;7.11;94.23
64078;BME280;51039;49.696;10.808;2023-04-15T06:32:27;97333.84;;;7.19;94.07
64078;BME280;51039;49.696;10.808;2023-04-15T06:34:52;97333.34;;;7.48;93.43
64078;BME280;51039;49.696;10.808;2023-04-15T06:37:18;97336.97;;;7.54;92.71
64078;BME280;51039;49.696;10.808;2023-04-15T06:39:43;97329.28;;;7.46;92.91
64078;BME280;51039;49.696;10.808;2023-04-15T06:42:09;97339.19;;;7.57;92.28
64078;BME280;51039;49.696;10.808;2023-04-15T06:44:35;97335.31;;;7.60;92.05
64078;BME280;51039;49.696;10.808;2023-04-15T06:47:01;97342.41;;;7.66;92.50
64078;BME280;51039;49.696;10.808;2023-04-15T06:49:26;97348.91;;;7.63;91.71
64078;BME280;51039;49.696;10.808;2023-04-15T06:51:52;97341.19;;;7.62;91.90
64078;BME280;51039;49.696;10.808;2023-04-15T06:54:17;97348.63;;;7.78;92.13
64078;BME280;51039;49.696;10.808;2023-04-15T06:56:42;97348.59;;;7.92;90.87
64078;BME280;51039;49.696;10.808;2023-04-15T06:59:08;97347.53;;;7.99;90.40
64078;BME280;51039;49.696;10.808;2023-04-15T07:01:33;97341.00;;;8.02;90.81
64078;BME280;51039;49.696;10.808;2023-04-15T07:03:58;97343.25;;;8.05;90.64
64078;BME280;51039;49.696;10.808;2023-04-15T07:06:24;97341.78;;;8.09;90.52
64078;BME280;51039;49.696;10.808;2023-04-15T07:08:49;97352.09;;;8.17;90.48
64078;BME280;51039;49.696;10.808;2023-04-15T07:11:15;97344.16;;;8.24;89.57
64078;BME280;51039;49.696;10.808;2023-04-15T07:13:41;97346.09;;;8.42;89.05
64078;BME280;51039;49.696;10.808;2023-04-15T07:16:06;97347.44;;;8.51;89.13
64078;BME280;51039;49.696;10.808;2023-04-15T07:18:32;97350.13;;;8.44;85.71
64078;BME280;51039;49.696;10.808;2023-04-15T07:20:58;97355.22;;;8.39;85.40
64078;BME280;51039;49.696;10.808;2023-04-15T07:23:23;97352.34;;;8.41;86.20
64078;BME280;51039;49.696;10.808;2023-04-15T07:25:49;97354.31;;;8.52;84.51
64078;BME280;51039;49.696;10.808;2023-04-15T07:28:14;97346.03;;;8.49;83.48
64078;BME280;51039;49.696;10.808;2023-04-15T07:30:40;97365.25;;;8.24;85.79
64078;BME280;51039;49.696;10.808;2023-04-15T07:33:05;97349.16;;;8.32;85.64
64078;BME280;51039;49.696;10.808;2023-04-15T07:35:30;97361.69;;;8.05;84.01
64078;BME280;51039;49.696;10.808;2023-04-15T07:37:57;97356.69;;;7.97;84.04
64078;BME280;51039;49.696;10.808;2023-04-15T07:40:22;97373.50;;;7.96;85.50
64078;BME280;51039;49.696;10.808;2023-04-15T07:42:48;97372.91;;;7.87;85.80
64078;BME280;51039;49.696;10.808;2023-04-15T07:45:13;97370.38;;;7.74;87.04
64078;BME280;51039;49.696;10.808;2023-04-15T07:47:40;97377.47;;;7.66;88.46
64078;BME280;51039;49.696;10.808;2023-04-15T07:50:06;97373.28;;;7.45;89.20
64078;BME280;51039;49.696;10.808;2023-04-15T07:52:33;97373.53;;;7.24;90.91
64078;BME280;51039;49.696;10.808;2023-04-15T07:55:03;97377.00;;;7.11;92.92
64078;BME280;51039;49.696;10.808;2023-04-15T07:57:35;97381.03;;;7.34;93.34
64078;BME280;51039;49.696;10.808;2023-04-15T08:00:00;97377.34;;;7.41;92.92
64078;BME280;51039;49.696;10.808;2023-04-15T08:02:27;97385.00;;;7.56;93.14
64078;BME280;51039;49.696;10.808;2023-04-15T08:04:53;97379.41;;;7.26;93.23
64078;BME280;51039;49.696;10.808;2023-04-15T08:07:18;97385.81;;;7.57;93.51
64078;BME280;51039;49.696;10.808;2023-04-15T08:09:43;97387.34;;;7.84;93.50
64078;BME280;51039;49.696;10.808;2023-04-15T08:12:09;97391.72;;;8.04;92.50
64078;BME280;51039;49.696;10.808;2023-04-15T08:14:37;97387.16;;;8.24;91.87
64078;BME280;51039;49.696;10.808;2023-04-15T08:17:02;97379.78;;;8.33;89.75
64078;BME280;51039;49.696;10.808;2023-04-15T08:19:28;97382.41;;;7.95;95.16
64078;BME280;51039;49.696;10.808;2023-04-15T08:21:54;97392.03;;;8.28;93.85
64078;BME280;51039;49.696;10.808;2023-04-15T08:24:20;97384.59;;;8.11;91.34
64078;BME280;51039;49.696;10.808;2023-04-15T08:26:46;97385.59;;;8.10;92.96
64078;BME280;51039;49.696;10.808;2023-04-15T08:29:11;97382.75;;;8.50;92.42
64078;BME280;51039;49.696;10.808;2023-04-15T08:31:37;97387.44;;;8.80;90.93
64078;BME280;51039;49.696;10.808;2023-04-15T08:34:02;97390.53;;;8.38;90.44
64078;BME280;51039;49.696;10.808;2023-04-15T08:36:27;97393.91;;;8.52;91.54
64078;BME280;51039;49.696;10.808;2023-04-15T08:38:53;97392.16;;;9.21;90.56
64078;BME280;51039;49.696;10.808;2023-04-15T08:44:00;97391.84;;;8.61;91.16
64078;BME280;51039;49.696;10.808;2023-04-15T08:46:28;97402.59;;;8.59;90.50
64078;BME280;51039;49.696;10.808;2023-04-15T08:48:55;97401.25;;;8.50;89.22
64078;BME280;51039;49.696;10.808;2023-04-15T08:51:21;97401.47;;;8.03;91.06
64078;BME280;51039;49.696;10.808;2023-04-15T08:53:47;97399.47;;;7.92;91.96
64078;BME280;51039;49.696;10.808;2023-04-15T08:56:14;97396.53;;;8.14;91.92
64078;BME280;51039;49.696;10.808;2023-04-15T08:58:40;97398.22;;;8.01;90.12
64078;BME280;51039;49.696;10.808;2023-04-15T09:01:08;97402.81;;;7.74;89.39
64078;BME280;51039;49.696;10.808;2023-04-15T09:03:33;97396.25;;;7.90;88.94
64078;BME280;51039;49.696;10.808;2023-04-15T09:05:59;97401.13;;;7.86;91.52
64078;BME280;51039;49.696;10.808;2023-04-15T09:08:24;97406.28;;;7.68;91.29
64078;BME280;51039;49.696;10.808;2023-04-15T09:10:50;97411.66;;;7.86;92.52
64078;BME280;51039;49.696;10.808;2023-04-15T09:13:16;97407.28;;;7.67;91.77
64078;BME280;51039;49.696;10.808;2023-04-15T09:15:42;97413.75;;;7.71;91.86
64078;BME280;51039;49.696;10.808;2023-04-15T09:18:08;97411.34;;;7.63;91.69
64078;BME280;51039;49.696;10.808;2023-04-15T09:20:39;97406.03;;;7.76;93.38
64078;BME280;51039;49.696;10.808;2023-04-15T09:23:12;97409.66;;;7.82;92.27
64078;BME280;51039;49.696;10.808;2023-04-15T09:25:39;97410.88;;;7.86;91.37
64078;BME280;51039;49.696;10.808;2023-04-15T09:28:08;97413.09;;;7.89;91.68
64078;BME280;51039;49.696;10.808;2023-04-15T09:30:35;97417.75;;;7.87;90.19
64078;BME280;51039;49.696;10.808;2023-04-15T09:33:01;97414.09;;;8.33;92.21
64078;BME280;51039;49.696;10.808;2023-04-15T09:35:32;97408.75;;;8.08;90.01
64078;BME280;51039;49.696;10.808;2023-04-15T09:38:04;97422.50;;;8.17;90.09
64078;BME280;51039;49.696;10.808;2023-04-15T09:43:06;97427.59;;;8.18;91.68
64078;BME280;51039;49.696;10.808;2023-04-15T09:45:34;97426.94;;;7.71;90.89
64078;BME280;51039;49.696;10.808;2023-04-15T09:50:46;97433.19;;;8.29;91.10
64078;BME280;51039;49.696;10.808;2023-04-15T09:53:23;97426.88;;;8.36;90.01
64078;BME280;51039;49.696;10.808;2023-04-15T09:55:50;97433.13;;;8.49;90.32
64078;BME280;51039;49.696;10.808;2023-04-15T09:58:22;97423.53;;;8.54;89.61
64078;BME280;51039;49.696;10.808;2023-04-15T10:00:52;97431.94;;;8.76;88.66
64078;BME280;51039;49.696;10.808;2023-04-15T10:03:20;97429.63;;;9.12;87.71
64078;BME280;51039;49.696;10.808;2023-04-15T10:05:49;97423.38;;;8.81;87.13
64078;BME280;51039;49.696;10.808;2023-04-15T10:08:16;97429.63;;;9.12;86.70
64078;BME280;51039;49.696;10.808;2023-04-15T10:10:44;97433.22;;;9.24;86.08
64078;BME280;51039;49.696;10.808;2023-04-15T10:13:11;97430.31;;;9.69;83.89
64078;BME280;51039;49.696;10.808;2023-04-15T10:15:38;97440.72;;;9.46;84.18
64078;BME280;51039;49.696;10.808;2023-04-15T10:18:06;97435.31;;;9.59;83.33
64078;BME280;51039;49.696;10.808;2023-04-15T10:20:33;97447.44;;;9.23;85.22
64078;BME280;51039;49.696;10.808;2023-04-15T10:23:00;97440.09;;;9.25;88.57
64078;BME280;51039;49.696;10.808;2023-04-15T10:25:26;97446.72;;;9.34;86.29
64078;BME280;51039;49.696;10.808;2023-04-15T10:27:53;97443.66;;;8.55;86.85
64078;BME280;51039;49.696;10.808;2023-04-15T10:30:20;97443.31;;;8.45;89.02
64078;BME280;51039;49.696;10.808;2023-04-15T10:32:46;97445.63;;;8.67;89.17
64078;BME280;51039;49.696;10.808;2023-04-15T10:35:13;97442.75;;;8.30;88.90
64078;BME280;51039;49.696;10.808;2023-04-15T10:37:39;97439.53;;;8.66;87.96
64078;BME280;51039;49.696;10.808;2023-04-15T10:40:38;97443.66;;;9.37;88.93
64078;BME280;51039;49.696;10.808;2023-04-15T10:42:58;97441.13;;;8.99;88.86
64078;BME280;51039;49.696;10.808;2023-04-15T10:45:27;97449.97;;;9.36;87.77
64078;BME280;51039;49.696;10.808;2023-04-15T10:47:57;97441.09;;;9.49;86.82
64078;BME280;51039;49.696;10.808;2023-04-15T10:50:26;97443.69;;;8.80;86.97
64078;BME280;51039;49.696;10.808;2023-04-15T10:52:54;97437.72;;;9.42;84.83
64078;BME280;51039;49.696;10.808;2023-04-15T10:55:21;97434.56;;;10.07;83.26
64078;BME280;51039;49.696;10.808;2023-04-15T10:57:57;97440.06;;;9.50;81.80
64078;BME280;51039;49.696;10.808;2023-04-15T11:00:25;97438.41;;;9.93;80.90
64078;BME280;51039;49.696;10.808;2023-04-15T11:05:22;97443.09;;;10.09;82.85
64078;BME280;51039;49.696;10.808;2023-04-15T11:08:11;97447.56;;;10.46;80.31
64078;BME280;51039;49.696;10.808;2023-04-15T11:13:03;97447.16;;;10.60;78.62
64078;BME280;51039;49.696;10.808;2023-04-15T11:15:38;97446.84;;;10.20;79.50
64078;BME280;51039;49.696;10.808;2023-04-15T11:20:31;97454.84;;;9.95;82.13
64078;BME280;51039;49.696;10.808;2023-04-15T11:22:57;97450.72;;;9.18;84.33
64078;BME280;51039;49.696;10.808;2023-04-15T11:27:48;97459.03;;;8.97;83.80
64078;BME280;51039;49.696;10.808;2023-04-15T11:30:17;97462.78;;;9.33;85.78
64078;BME280;51039;49.696;10.808;2023-04-15T11:32:48;97467.47;;;9.06;85.41
64078;BME280;51039;49.696;10.808;2023-04-15T11:35:22;97469.09;;;8.81;84.78
64078;BME280;51039;49.696;10.808;2023-04-15T11:37:47;97471.47;;;9.15;85.54
64078;BME280;51039;49.696;10.808;2023-04-15T11:40:14;97468.03;;;9.39;83.42
64078;BME280;51039;49.696;10.808;2023-04-15T11:42:41;97464.22;;;9.35;82.38
64078;BME280;51039;49.696;10.808;2023-04-15T11:45:11;97466.94;;;9.47;82.03
64078;BME280;51039;49.696;10.808;2023-04-15T11:47:38;97459.81;;;9.48;80.84
64078;BME280;51039;49.696;10.808;2023-04-15T11:52:50;97471.19;;;9.48;80.83
64078;BME280;51039;49.696;10.808;2023-04-15T11:55:17;97463.72;;;9.63;80.89
64078;BME280;51039;49.696;10.808;2023-04-15T11:57:42;97455.41;;;9.60;80.32
64078;BME280;51039;49.696;10.808;2023-04-15T12:00:08;97464.47;;;9.71;81.21
64078;BME280;51039;49.696;10.808;2023-04-15T12:02:35;97464.53;;;9.64;82.36
64078;BME280;51039;49.696;10.808;2023-04-15T12:05:04;97471.56;;;9.95;80.47
64078;BME280;51039;49.696;10.808;2023-04-15T12:07:30;97476.31;;;9.68;81.76
64078;BME280;51039;49.696;10.808;2023-04-15T12:09:56;97476.53;;;9.67;83.18
64078;BME280;51039;49.696;10.808;2023-04-15T12:12:26;97479.69;;;9.32;82.22
64078;BME280;51039;49.696;10.808;2023-04-15T12:14:52;97484.97;;;9.75;81.25
64078;BME280;51039;49.696;10.808;2023-04-15T12:17:20;97486.31;;;10.21;79.84
64078;BME280;51039;49.696;10.808;2023-04-15T12:19:47;97487.94;;;10.22;79.03
64078;BME280;51039;49.696;10.808;2023-04-15T12:22:14;97492.19;;;10.05;80.57
64078;BME280;51039;49.696;10.808;2023-04-15T12:24:41;97489.91;;;10.27;80.07
64078;BME280;51039;49.696;10.808;2023-04-15T12:27:14;97493.94;;;10.67;79.90
64078;BME280;51039;49.696;10.808;2023-04-15T12:29:40;97500.78;;;10.56;78.55
64078;BME280;51039;49.696;10.808;2023-04-15T12:32:10;97506.97;;;9.76;79.43
64078;BME280;51039;49.696;10.808;2023-04-15T12:37:05;97504.69;;;9.29;80.69
64078;BME280;51039;49.696;10.808;2023-04-15T12:39:42;97506.66;;;9.84;80.03
64078;BME280;51039;49.696;10.808;2023-04-15T12:42:10;97510.28;;;10.27;78.22
64078;BME280;51039;49.696;10.808;2023-04-15T12:44:36;97509.69;;;10.25;76.38
64078;BME280;51039;49.696;10.808;2023-04-15T12:47:03;97518.03;;;9.85;77.66
64078;BME280;51039;49.696;10.808;2023-04-15T12:49:29;97510.16;;;10.40;77.54
64078;BME280;51039;49.696;10.808;2023-04-15T12:51:56;97511.31;;;10.07;76.77
64078;BME280;51039;49.696;10.808;2023-04-15T12:54:23;97511.28;;;9.89;77.34
64078;BME280;51039;49.696;10.808;2023-04-15T12:56:49;97518.84;;;9.85;79.13
64078;BME280;51039;49.696;10.808;2023-04-15T12:59:15;97520.88;;;9.65;81.19
64078;BME280;51039;49.696;10.808;2023-04-15T13:01:42;97520.22;;;9.69;81.72
64078;BME280;51039;49.696;10.808;2023-04-15T13:04:08;97526.19;;;9.39;82.63
64078;BME280;51039;49.696;10.808;2023-04-15T13:06:34;97526.69;;;9.23;82.54
64078;BME280;51039;49.696;10.808;2023-04-15T13:08:59;97537.22;;;9.04;83.64
64078;BME280;51039;49.696;10.808;2023-04-15T13:11:26;97532.75;;;8.98;84.00
64078;BME280;51039;49.696;10.808;2023-04-15T13:13:54;97536.69;;;8.89;84.38